createdAt,value
2023-08-05T00:05:47.987Z,17.6
2023-08-05T00:25:47.952Z,17.4
2023-08-05T00:45:47.928Z,17.1
2023-08-05T01:05:47.931Z,17.0
2023-08-05T01:25:47.887Z,16.7
2023-08-05T01:45:47.872Z,16.5
2023-08-05T02:05:47.925Z,16.3
2023-08-05T02:25:47.806Z,16.1
2023-08-05T02:45:47.874Z,15.6
2023-08-05T03:05:47.790Z,15.3
2023-08-05T03:25:47.747Z,15.3
2023-08-05T03:45:47.732Z,15.2
2023-08-05T04:05:47.773Z,15.1
2023-08-05T04:25:47.691Z,14.9
2023-08-05T04:45:47.689Z,15.0
2023-08-05T05:05:47.639Z,15.0
2023-08-05T05:25:47.634Z,14.6
2023-08-05T05:45:47.605Z,15.2
2023-08-05T06:05:47.600Z,15.4
2023-08-05T06:25:47.579Z,15.6
2023-08-05T06:45:47.746Z,16.0
2023-08-05T07:05:47.549Z,16.3
2023-08-05T07:25:47.503Z,16.9
2023-08-05T07:45:47.482Z,17.2
2023-08-05T08:05:47.454Z,17.7
2023-08-05T08:25:47.453Z,18.3
2023-08-05T08:45:47.399Z,18.6
2023-08-05T09:05:47.385Z,19.2
2023-08-05T09:25:47.377Z,19.1
2023-08-05T09:45:47.353Z,20.0
2023-08-05T10:05:47.324Z,20.3
2023-08-05T10:45:47.263Z,21.2
2023-08-05T11:05:47.277Z,21.7
2023-08-05T11:25:47.206Z,22.5
2023-08-05T11:45:47.213Z,23.0
2023-08-05T12:05:47.235Z,22.7
2023-08-05T12:25:47.323Z,23.7
2023-08-05T12:45:47.530Z,23.0
2023-08-05T13:05:47.161Z,22.4
2023-08-05T13:25:47.138Z,22.2
2023-08-05T13:45:47.078Z,22.6
2023-08-05T14:05:47.004Z,23.5
2023-08-05T14:25:46.985Z,23.8
2023-08-05T14:45:46.955Z,24.0
2023-08-05T15:05:46.953Z,23.6
2023-08-05T15:25:46.920Z,23.3
2023-08-05T15:45:46.957Z,23.3
2023-08-05T16:05:46.866Z,23.3
2023-08-05T16:25:46.857Z,23.1
2023-08-05T16:45:46.833Z,22.7
2023-08-05T17:05:46.776Z,22.4
2023-08-05T17:25:46.774Z,21.9
2023-08-05T17:45:46.935Z,21.4
2023-08-05T18:05:46.707Z,20.5
2023-08-05T18:25:46.726Z,20.4
2023-08-05T18:45:46.677Z,20.2
2023-08-05T19:05:46.626Z,19.2
2023-08-05T19:25:46.618Z,18.9
2023-08-05T19:45:46.583Z,18.4
2023-08-05T20:05:46.562Z,18.3
2023-08-05T20:25:46.536Z,18.4
2023-08-05T20:45:46.848Z,18.0
2023-08-05T21:05:46.557Z,17.7
2023-08-05T21:25:46.670Z,17.3
2023-08-05T21:45:46.761Z,17.3
2023-08-05T22:05:46.686Z,17.2
2023-08-05T22:25:46.752Z,17.0
2023-08-05T22:45:46.706Z,16.9
2023-08-05T23:05:46.648Z,17.0
2023-08-05T23:25:46.573Z,16.9
2023-08-05T23:45:46.560Z,16.6
